Time;durP1;ratioP1;P1;durP2;ratioP2;P2;SDS_P1;SDS_P2;PMS_P1;PMS_P2;Temp;Humidity;BMP_temperature;BMP_pressure;BME280_temperature;BME280_humidity;BME280_pressure;Samples;Min_cycle;Max_cycle;Signal;HPM_P1;HPM_P2
2022/04/26 03:38:20;;;;;;;20.15;12.70;;;;;;;8.86;100.00;98322.59;5088560;28;20046;-73
2022/04/26 03:40:45;;;;;;;22.50;13.02;;;;;;;8.86;100.00;98328.81;5087650;28;20369;-74
2022/04/26 03:43:10;;;;;;;21.90;13.88;;;;;;;8.88;100.00;98321.34;5088841;28;20031;-74
2022/04/26 03:45:35;;;;;;;20.25;12.68;;;;;;;8.95;100.00;98330.25;5090608;28;20081;-73
2022/04/26 03:48:01;;;;;;;18.58;11.80;;;;;;;8.89;100.00;98322.16;5094206;28;20035;-74
2022/04/26 03:50:26;;;;;;;19.52;12.57;;;;;;;8.86;100.00;98318.00;5099885;28;20035;-74
2022/04/26 03:52:53;;;;;;;19.17;12.02;;;;;;;8.94;100.00;98331.31;5103408;28;20110;-74
2022/04/26 03:55:20;;;;;;;19.02;12.32;;;;;;;8.84;100.00;98325.47;5096289;28;20157;-74
2022/04/26 03:57:46;;;;;;;17.23;11.27;;;;;;;8.81;100.00;98330.47;5102324;28;20024;-74
2022/04/26 04:00:11;;;;;;;18.25;12.20;;;;;;;8.87;100.00;98335.03;5099713;28;20028;-74
2022/04/26 04:02:40;;;;;;;19.77;12.80;;;;;;;8.75;100.00;98324.84;5093355;28;20459;-70
2022/04/26 04:05:06;;;;;;;18.83;12.37;;;;;;;8.79;100.00;98336.03;5101970;28;20024;-72
2022/04/26 04:07:31;;;;;;;19.02;12.23;;;;;;;8.74;100.00;98322.34;5090862;28;20210;-72
2022/04/26 04:09:56;;;;;;;21.00;12.35;;;;;;;8.78;100.00;98331.69;5092569;28;20047;-73
2022/04/26 04:12:21;;;;;;;22.05;12.68;;;;;;;8.76;100.00;98333.75;5087986;28;20020;-73
2022/04/26 04:14:47;;;;;;;19.45;12.15;;;;;;;8.75;100.00;98332.94;5082878;28;20028;-74
2022/04/26 04:17:12;;;;;;;19.15;12.35;;;;;;;8.78;100.00;98342.47;5096663;28;20028;-74
2022/04/26 04:19:38;;;;;;;17.25;11.85;;;;;;;8.86;100.00;98349.56;5116451;27;20016;-74
2022/04/26 04:22:04;;;;;;;19.40;12.52;;;;;;;8.81;100.00;98344.78;5108113;28;20008;-73
2022/04/26 04:24:30;;;;;;;18.35;11.52;;;;;;;8.74;100.00;98333.13;5103992;28;20084;-74
2022/04/26 04:26:55;;;;;;;19.48;12.35;;;;;;;8.75;100.00;98354.50;5109692;28;20020;-75
2022/04/26 04:29:20;;;;;;;19.40;11.98;;;;;;;8.77;100.00;98354.28;5110075;28;20038;-70
2022/04/26 04:31:45;;;;;;;18.90;11.93;;;;;;;8.79;100.00;98352.22;5100424;28;20031;-71
2022/04/26 04:34:11;;;;;;;21.05;12.75;;;;;;;8.81;100.00;98342.06;5101027;28;20411;-70
2022/04/26 04:36:36;;;;;;;17.75;11.82;;;;;;;8.99;100.00;98361.22;5100857;28;20419;-74
2022/04/26 04:39:02;;;;;;;19.98;13.18;;;;;;;8.81;100.00;98355.56;5086509;28;20031;-73
2022/04/26 04:41:28;;;;;;;18.85;12.70;;;;;;;8.83;100.00;98366.13;5082973;28;20107;-73
2022/04/26 04:43:53;;;;;;;21.52;14.45;;;;;;;8.80;100.00;98353.88;5088051;28;20035;-71
2022/04/26 04:46:18;;;;;;;17.70;12.73;;;;;;;8.84;100.00;98357.84;5091461;28;20034;-70
2022/04/26 04:48:44;;;;;;;20.27;12.55;;;;;;;8.85;100.00;98366.75;5088867;28;20039;-72
2022/04/26 04:51:09;;;;;;;20.15;12.90;;;;;;;8.85;100.00;98366.75;5088862;28;20070;-69
2022/04/26 04:53:34;;;;;;;20.15;12.43;;;;;;;8.84;100.00;98365.94;5089431;28;20107;-70
2022/04/26 04:56:00;;;;;;;17.13;11.77;;;;;;;8.80;100.00;98356.56;5079316;28;20052;-72
2022/04/26 04:58:25;;;;;;;18.65;12.20;;;;;;;8.95;100.00;98380.69;5088961;28;20380;-73
2022/04/26 05:00:51;;;;;;;18.70;12.27;;;;;;;8.84;100.00;98370.50;5090512;28;20399;-76
2022/04/26 05:03:17;;;;;;;17.05;11.68;;;;;;;8.83;100.00;98372.38;5091188;28;20020;-74
2022/04/26 05:05:42;;;;;;;17.35;11.45;;;;;;;8.71;100.00;98349.72;5088084;28;20028;-74
2022/04/26 05:08:11;;;;;;;16.02;10.85;;;;;;;8.84;100.00;98357.84;5089247;28;20046;-74
2022/04/26 05:10:37;;;;;;;17.08;10.20;;;;;;;8.93;100.00;98369.28;5085342;28;20032;-73
2022/04/26 05:13:04;;;;;;;20.10;11.10;;;;;;;8.93;100.00;98370.13;5086022;28;20036;-73
2022/04/26 05:15:30;;;;;;;16.13;10.98;;;;;;;8.92;100.00;98359.53;5082513;28;20028;-75
2022/04/26 05:17:55;;;;;;;18.13;11.52;;;;;;;8.95;100.00;98359.94;5102414;28;20020;-74
2022/04/26 05:20:21;;;;;;;16.05;10.77;;;;;;;8.97;100.00;98365.97;5080489;28;20035;-73
2022/04/26 05:25:40;;;;;;;17.67;11.98;;;;;;;9.02;100.00;98364.53;5082635;28;20118;-71
2022/04/26 05:28:05;;;;;;;15.48;10.90;;;;;;;9.03;100.00;98358.91;5089073;28;20062;-72
2022/04/26 05:30:30;;;;;;;16.27;10.45;;;;;;;9.15;100.00;98359.16;5088950;28;20660;-71
2022/04/26 05:32:56;;;;;;;16.85;10.73;;;;;;;9.17;100.00;98357.94;5073158;28;20074;-72
2022/04/26 05:35:22;;;;;;;16.50;10.65;;;;;;;9.46;100.00;98365.81;5087466;28;20016;-72
2022/04/26 05:37:48;;;;;;;16.05;11.38;;;;;;;9.45;100.00;98370.41;5089379;28;20028;-70
2022/04/26 05:40:13;;;;;;;16.58;10.65;;;;;;;9.39;100.00;98365.84;5072040;28;20101;-74
2022/04/26 05:42:39;;;;;;;13.35;9.55;;;;;;;9.56;100.00;98369.81;5099155;28;20068;-69
2022/04/26 05:45:04;;;;;;;15.63;9.88;;;;;;;9.60;100.00;98372.91;5086179;28;20039;-73
2022/04/26 05:47:30;;;;;;;14.63;9.60;;;;;;;9.57;100.00;98357.13;5089198;28;20039;-73
2022/04/26 05:49:56;;;;;;;13.75;9.38;;;;;;;9.80;100.00;98376.44;5088354;28;20111;-73
2022/04/26 05:52:21;;;;;;;13.70;9.82;;;;;;;9.68;100.00;98359.19;5087385;28;20035;-73
2022/04/26 05:54:46;;;;;;;14.60;9.65;;;;;;;9.75;100.00;98367.31;5106166;28;20047;-73
2022/04/26 05:57:12;;;;;;;12.52;8.70;;;;;;;9.83;100.00;98386.81;5089327;28;20724;-73
2022/04/26 05:59:37;;;;;;;13.95;8.70;;;;;;;9.80;100.00;98373.75;5087779;28;20700;-73
2022/04/26 06:02:02;;;;;;;14.35;9.48;;;;;;;9.67;100.00;98368.34;5084167;28;20120;-73
2022/04/26 06:04:28;;;;;;;11.55;8.90;;;;;;;9.66;100.00;98363.97;5086039;28;20020;-74
2022/04/26 06:06:54;;;;;;;14.43;9.05;;;;;;;9.72;100.00;98384.75;5085049;28;20024;-74
2022/04/26 06:09:20;;;;;;;11.82;8.48;;;;;;;9.76;100.00;98393.28;5088098;28;21347;-70
2022/04/26 06:11:45;;;;;;;12.30;8.20;;;;;;;9.79;100.00;98393.66;5087750;28;20031;-74
2022/04/26 06:14:10;;;;;;;19.23;8.60;;;;;;;9.86;100.00;98377.47;5087585;28;20178;-74
2022/04/26 06:16:36;;;;;;;10.75;7.78;;;;;;;9.95;100.00;98375.38;5087876;28;20058;-74
2022/04/26 06:19:02;;;;;;;10.60;7.47;;;;;;;10.02;100.00;98376.19;5090302;28;20047;-73
2022/04/26 06:21:27;;;;;;;10.40;6.68;;;;;;;9.88;100.00;98388.91;5093933;28;20032;-73
2022/04/26 06:23:52;;;;;;;9.73;7.15;;;;;;;10.04;100.00;98390.34;5097185;28;20035;-72
2022/04/26 06:26:18;;;;;;;9.98;6.88;;;;;;;9.98;100.00;98399.28;5119981;28;20088;-70
2022/04/26 06:28:43;;;;;;;10.63;6.75;;;;;;;9.93;100.00;98383.72;5121096;28;20009;-74
2022/04/26 06:31:10;;;;;;;9.55;6.70;;;;;;;9.97;100.00;98394.91;5122608;28;20020;-73
2022/04/26 06:33:35;;;;;;;8.77;6.80;;;;;;;9.83;100.00;98396.81;5105504;28;20016;-73
2022/04/26 06:36:01;;;;;;;12.02;7.70;;;;;;;9.75;100.00;98395.16;5114865;28;20040;-72
2022/04/26 06:38:26;;;;;;;10.80;7.35;;;;;;;9.64;100.00;98398.44;5100087;28;20552;-74
2022/04/26 06:40:53;;;;;;;10.82;7.10;;;;;;;9.59;100.00;98399.09;5090779;28;20092;-74
2022/04/26 06:43:19;;;;;;;16.20;9.45;;;;;;;9.61;100.00;98404.28;5090437;28;20051;-73
2022/04/26 06:45:46;;;;;;;14.07;9.85;;;;;;;9.56;100.00;98401.34;5094020;28;20067;-75
2022/04/26 06:48:11;;;;;;;16.40;10.07;;;;;;;9.53;100.00;98404.47;5088740;28;20081;-74
2022/04/26 06:50:37;;;;;;;16.50;11.35;;;;;;;9.67;100.00;98406.16;5088692;28;20019;-74
2022/04/26 06:53:04;;;;;;;17.20;11.20;;;;;;;9.63;100.00;98380.59;5089989;28;20046;-69
2022/04/26 06:55:29;;;;;;;16.30;11.40;;;;;;;9.83;100.00;98413.84;5089028;28;20062;-69
2022/04/26 06:57:54;;;;;;;21.63;12.52;;;;;;;9.79;100.00;98404.47;5086216;28;20055;-70
2022/04/26 07:00:20;;;;;;;21.08;12.85;;;;;;;9.85;100.00;98408.22;5107314;28;20027;-70
2022/04/26 07:02:45;;;;;;;20.52;12.20;;;;;;;9.85;100.00;98411.78;5091663;28;20039;-69
2022/04/26 07:05:11;;;;;;;18.80;12.45;;;;;;;9.79;100.00;98407.19;5088175;28;20028;-71
2022/04/26 07:07:38;;;;;;;20.20;12.07;;;;;;;9.92;100.00;98402.81;5081368;28;20031;-71
2022/04/26 07:10:05;;;;;;;20.60;12.30;;;;;;;10.05;100.00;98402.81;5090665;28;20032;-72
2022/04/26 07:12:30;;;;;;;20.42;11.98;;;;;;;10.07;100.00;98409.66;5090823;28;20032;-67
2022/04/26 07:14:56;;;;;;;17.88;11.63;;;;;;;10.14;100.00;98408.81;5091035;28;20024;-68
2022/04/26 07:17:21;;;;;;;19.88;11.25;;;;;;;10.03;100.00;98400.34;5088313;28;20040;-67
2022/04/26 07:19:46;;;;;;;18.08;11.73;;;;;;;10.11;100.00;98420.88;5090817;28;20365;-67
2022/04/26 07:22:11;;;;;;;11.80;8.23;;;;;;;10.05;100.00;98419.84;5083890;28;20030;-68
2022/04/26 07:24:37;;;;;;;9.98;6.85;;;;;;;10.05;100.00;98408.22;5085100;28;20498;-68
2022/04/26 07:27:03;;;;;;;9.38;6.93;;;;;;;9.88;100.00;98407.81;5086817;28;20032;-67
2022/04/26 07:29:28;;;;;;;9.70;6.20;;;;;;;9.94;100.00;98414.25;5087410;28;20393;-68
2022/04/26 07:31:54;;;;;;;6.63;4.85;;;;;;;9.96;100.00;98420.28;5087947;28;20027;-67
2022/04/26 07:34:22;;;;;;;5.22;3.92;;;;;;;9.84;100.00;98418.19;5084942;28;20024;-69
2022/04/26 07:36:49;;;;;;;4.43;3.60;;;;;;;9.87;100.00;98409.66;5080050;28;20158;-69
2022/04/26 07:39:17;;;;;;;4.38;2.97;;;;;;;9.81;100.00;98413.22;5074817;28;20219;-65
2022/04/26 07:41:42;;;;;;;4.32;3.22;;;;;;;9.85;100.00;98403.66;5086284;28;20032;-67
2022/04/26 07:44:08;;;;;;;4.13;3.28;;;;;;;10.11;100.00;98415.47;5089357;28;20054;-70
2022/04/26 07:46:33;;;;;;;4.82;3.28;;;;;;;10.50;100.00;98414.59;5105847;28;20035;-70
2022/04/26 07:48:58;;;;;;;4.68;3.15;;;;;;;10.78;100.00;98420.75;5090978;28;20073;-71
2022/04/26 07:51:24;;;;;;;3.90;2.60;;;;;;;11.05;100.00;98407.94;5085823;28;20026;-70
2022/04/26 07:53:49;;;;;;;5.80;3.08;;;;;;;11.10;100.00;98414.34;5085585;28;20036;-70
2022/04/26 07:56:15;;;;;;;5.38;3.50;;;;;;;11.19;100.00;98421.19;5088493;28;20512;-71
2022/04/26 07:58:40;;;;;;;4.00;3.17;;;;;;;11.24;100.00;98420.56;5085660;28;20028;-70
2022/04/26 08:01:05;;;;;;;4.80;3.85;;;;;;;11.50;100.00;98422.28;5089320;28;20028;-70
2022/04/26 08:03:35;;;;;;;5.50;4.20;;;;;;;11.71;98.66;98423.78;5091057;28;20281;-72
2022/04/26 08:06:01;;;;;;;6.20;4.30;;;;;;;12.30;97.33;98423.50;5089873;28;20111;-72
2022/04/26 08:08:26;;;;;;;7.35;5.22;;;;;;;14.27;82.71;98400.31;5087605;28;20154;-73
2022/04/26 08:10:51;;;;;;;6.72;4.25;;;;;;;14.90;74.68;98410.44;5090939;28;20043;-73
2022/04/26 08:13:17;;;;;;;9.25;5.60;;;;;;;14.66;73.85;98420.53;5088595;28;20039;-73
2022/04/26 08:15:42;;;;;;;10.65;6.88;;;;;;;13.78;75.50;98419.53;5079652;28;20032;-72
2022/04/26 08:18:09;;;;;;;8.55;5.85;;;;;;;14.68;74.87;98432.84;5085914;28;20151;-72
2022/04/26 08:20:35;;;;;;;8.32;5.65;;;;;;;15.34;71.61;98438.84;5087943;28;20024;-72
2022/04/26 08:23:02;;;;;;;8.80;6.22;;;;;;;15.01;74.80;98446.88;5088498;28;20458;-72
2022/04/26 08:28:11;;;;;;;9.98;6.68;;;;;;;13.77;78.39;98464.94;5089430;28;20038;-70
2022/04/26 08:30:37;;;;;;;9.38;6.40;;;;;;;13.57;81.72;98448.09;5079570;28;20024;-68
2022/04/26 08:33:02;;;;;;;8.52;6.68;;;;;;;13.42;85.30;98473.00;5085822;28;20699;-68
2022/04/26 08:35:27;;;;;;;9.07;7.22;;;;;;;13.19;84.25;98467.41;5082905;28;20485;-68
2022/04/26 08:37:53;;;;;;;8.98;7.07;;;;;;;12.62;84.11;98481.22;5085567;28;20028;-68
2022/04/26 08:40:19;;;;;;;9.57;7.28;;;;;;;11.93;90.67;98492.03;5077262;28;20035;-68
2022/04/26 08:42:46;;;;;;;11.32;7.72;;;;;;;12.25;93.35;98490.09;5084573;28;20036;-68
2022/04/26 08:45:17;;;;;;;9.82;7.80;;;;;;;12.35;90.93;98480.66;5087617;28;20084;-67
2022/04/26 08:53:15;;;;;;;11.02;8.23;;;;;;;12.38;90.57;98499.19;5087264;28;20058;-67
2022/04/26 08:55:50;;;;;;;9.98;7.70;;;;;;;12.42;92.21;98497.69;5085771;28;20024;-67
2022/04/26 08:58:18;;;;;;;10.10;8.32;;;;;;;12.22;91.25;98501.41;5080107;28;20423;-67
2022/04/26 09:01:05;;;;;;;10.98;8.75;;;;;;;11.91;92.79;98513.09;5087986;28;20052;-67
2022/04/26 09:03:35;;;;;;;10.15;8.27;;;;;;;11.79;95.35;98517.56;5088250;28;20047;-67
2022/04/26 09:06:07;;;;;;;12.68;8.73;;;;;;;11.66;95.97;98501.34;5084852;28;20039;-67
2022/04/26 09:08:34;;;;;;;12.00;9.00;;;;;;;11.70;97.84;98508.81;5086028;28;20084;-67
2022/04/26 09:11:00;;;;;;;12.80;8.13;;;;;;;11.91;95.48;98499.53;5084936;28;20039;-67
2022/04/26 09:13:26;;;;;;;14.68;8.77;;;;;;;12.16;89.73;98509.59;5081014;28;20024;-67
2022/04/26 09:15:54;;;;;;;10.40;8.32;;;;;;;12.36;91.45;98512.13;5088092;28;20024;-67
2022/04/26 09:18:24;;;;;;;9.73;7.72;;;;;;;12.35;88.62;98519.44;5087908;28;20039;-67
2022/04/26 09:21:10;;;;;;;11.00;8.20;;;;;;;12.22;89.39;98524.97;5082609;28;20414;-67
2022/04/26 09:23:38;;;;;;;13.70;8.80;;;;;;;12.24;89.73;98522.88;5086407;28;20040;-67
2022/04/26 09:26:12;;;;;;;11.93;9.15;;;;;;;12.23;90.49;98518.50;5073270;28;20028;-67
2022/04/26 09:28:46;;;;;;;12.80;9.30;;;;;;;12.23;91.23;98504.94;5082821;28;20084;-67
2022/04/26 09:31:22;;;;;;;10.80;8.90;;;;;;;12.63;90.67;98520.88;5089187;28;20602;-67
2022/04/26 09:33:53;;;;;;;11.52;9.55;;;;;;;13.05;87.39;98516.47;5087664;28;20132;-67
2022/04/26 09:36:21;;;;;;;12.50;9.30;;;;;;;13.34;86.46;98525.75;5080495;28;20067;-67
2022/04/26 09:38:55;;;;;;;11.75;9.35;;;;;;;13.54;85.33;98520.03;5084304;28;20039;-67
2022/04/26 09:41:22;;;;;;;11.05;9.35;;;;;;;14.46;79.45;98522.44;5085557;28;20052;-67
2022/04/26 09:44:08;;;;;;;13.80;7.80;;;;;;;18.30;66.54;98495.19;5089793;28;20569;-68
2022/04/26 09:46:42;;;;;;;9.55;6.70;;;;;;;22.14;53.85;98509.28;5088518;28;20035;-67
2022/04/26 09:49:09;;;;;;;10.27;6.47;;;;;;;23.42;47.90;98511.72;5086399;28;20086;-67
2022/04/26 09:51:36;;;;;;;8.00;6.43;;;;;;;24.58;43.87;98507.63;5086818;28;20127;-68
2022/04/26 09:54:02;;;;;;;9.15;6.43;;;;;;;23.84;41.25;98508.19;5079782;28;20375;-68
2022/04/26 09:56:29;;;;;;;9.30;6.70;;;;;;;22.26;47.11;98507.03;5080088;28;20030;-69
2022/04/26 09:58:57;;;;;;;7.25;6.07;;;;;;;20.89;48.41;98512.84;5083531;28;20374;-68
2022/04/26 10:01:27;;;;;;;8.35;6.03;;;;;;;21.85;47.17;98512.78;5079240;28;20108;-68
2022/04/26 10:03:56;;;;;;;6.05;5.45;;;;;;;21.59;46.90;98504.69;5074458;28;20036;-68
2022/04/26 10:06:24;;;;;;;7.03;6.07;;;;;;;20.08;47.47;98514.47;5085896;28;20085;-69
2022/04/26 10:08:50;;;;;;;7.03;5.63;;;;;;;19.21;51.88;98499.66;5074550;28;20035;-68
2022/04/26 10:11:17;;;;;;;6.10;5.40;;;;;;;18.02;54.84;98524.50;5082054;28;20034;-68
2022/04/26 10:13:43;;;;;;;9.43;6.28;;;;;;;16.79;58.74;98520.25;5079676;28;20063;-68
2022/04/26 10:16:11;;;;;;;7.57;6.35;;;;;;;15.99;61.98;98521.34;5078732;28;20484;-67
2022/04/26 10:18:45;;;;;;;7.68;5.97;;;;;;;15.76;63.99;98519.53;5086301;28;20032;-67
2022/04/26 10:21:12;;;;;;;8.52;6.57;;;;;;;15.56;64.93;98518.06;5087270;28;20389;-67
2022/04/26 10:24:01;;;;;;;9.35;7.13;;;;;;;15.84;63.19;98516.41;5086932;28;20031;-67
2022/04/26 10:26:27;;;;;;;7.97;6.13;;;;;;;17.80;60.28;98512.78;5081689;28;20036;-68
2022/04/26 10:28:57;;;;;;;10.13;5.82;;;;;;;21.14;49.56;98511.97;5086358;28;20077;-68
2022/04/26 10:31:40;;;;;;;8.55;5.70;;;;;;;20.84;46.68;98523.03;5072752;28;20137;-68
2022/04/26 10:34:14;;;;;;;6.55;4.55;;;;;;;20.03;46.21;98514.47;5078341;28;20047;-67
2022/04/26 10:36:40;;;;;;;8.23;4.72;;;;;;;18.48;49.20;98515.88;5085819;28;20025;-68
2022/04/26 10:39:21;;;;;;;6.00;4.85;;;;;;;18.52;51.44;98523.31;5083318;28;20043;-68
2022/04/26 10:41:47;;;;;;;7.50;4.50;;;;;;;19.73;49.46;98514.41;5085279;28;20024;-68
2022/04/26 10:44:15;;;;;;;5.55;4.57;;;;;;;21.49;45.65;98518.47;5090333;28;20035;-68
2022/04/26 10:46:55;;;;;;;5.28;4.10;;;;;;;22.73;40.39;98517.38;5089917;28;20395;-68
2022/04/26 10:49:21;;;;;;;4.97;3.78;;;;;;;24.53;36.94;98510.47;5085296;28;20017;-68
2022/04/26 10:51:46;;;;;;;6.68;3.67;;;;;;;24.06;34.19;98501.22;5094275;28;20035;-69
2022/04/26 10:54:11;;;;;;;3.92;3.15;;;;;;;21.58;39.69;98507.69;5091740;28;20115;-68
2022/04/26 10:56:36;;;;;;;5.32;3.30;;;;;;;19.10;41.42;98522.59;5094876;28;20028;-67
2022/04/26 10:59:13;;;;;;;7.38;3.63;;;;;;;17.76;44.49;98517.88;5084241;28;20162;-67
2022/04/26 11:01:39;;;;;;;4.13;3.63;;;;;;;19.24;43.66;98519.13;5089661;28;20386;-67
2022/04/26 11:04:05;;;;;;;4.18;3.35;;;;;;;20.35;40.67;98516.97;5074603;28;20033;-66
2022/04/26 11:06:41;;;;;;;4.65;3.70;;;;;;;22.70;39.36;98519.91;5090928;28;20016;-67
2022/04/26 11:09:14;;;;;;;5.20;3.45;;;;;;;23.97;35.81;98525.13;5088131;28;20028;-67
2022/04/26 11:11:51;;;;;;;6.50;4.50;;;;;;;21.23;42.75;98531.47;5093982;28;20024;-67
2022/04/26 11:14:17;;;;;;;4.40;3.60;;;;;;;17.85;45.82;98548.41;5089736;28;20024;-67
2022/04/26 11:16:58;;;;;;;7.25;2.92;;;;;;;16.19;50.52;98554.47;5094087;28;20396;-67
2022/04/26 11:19:36;;;;;;;3.72;2.70;;;;;;;15.27;53.41;98555.38;5089947;28;20046;-68
2022/04/26 11:22:09;;;;;;;3.88;3.15;;;;;;;14.46;55.45;98557.84;5091877;28;20023;-67
2022/04/26 11:30:06;;;;;;;2.97;1.60;;;;;;;14.88;52.36;98570.53;5091072;28;20075;-67
2022/04/26 11:32:38;;;;;;;2.92;1.65;;;;;;;14.30;53.37;98582.97;5091977;28;20031;-67
2022/04/26 11:35:04;;;;;;;2.83;1.70;;;;;;;14.20;54.58;98588.16;5078743;28;20029;-67
2022/04/26 11:37:29;;;;;;;4.10;1.52;;;;;;;13.82;57.70;98582.00;5076530;28;20106;-67
2022/04/26 11:39:55;;;;;;;2.90;1.70;;;;;;;13.92;58.91;98588.78;5089273;28;20028;-67
2022/04/26 11:42:20;;;;;;;2.08;1.25;;;;;;;13.34;58.25;98595.56;5092425;28;20024;-67
2022/04/26 11:45:15;;;;;;;2.95;1.65;;;;;;;13.12;60.58;98598.69;5088675;28;20027;-66
2022/04/26 11:47:44;;;;;;;2.22;1.95;;;;;;;12.77;64.19;98606.56;5069568;28;20092;-66
2022/04/26 11:50:16;;;;;;;3.33;2.10;;;;;;;12.45;64.22;98594.94;5096447;28;20073;-67
2022/04/26 11:52:43;;;;;;;3.33;2.17;;;;;;;12.32;68.21;98609.41;5087866;28;20043;-68
2022/04/26 11:55:31;;;;;;;3.65;2.10;;;;;;;12.10;67.73;98616.22;5085611;28;20024;-69
2022/04/26 11:58:15;;;;;;;5.85;2.20;;;;;;;12.24;66.68;98607.78;5089640;28;20033;-68
2022/04/26 12:00:57;;;;;;;3.60;2.30;;;;;;;12.83;68.38;98611.09;5079419;28;20481;-70
2022/04/26 12:03:25;;;;;;;2.90;1.90;;;;;;;13.41;64.80;98615.34;5083778;28;20036;-69
2022/04/26 12:05:57;;;;;;;2.97;1.90;;;;;;;14.30;61.73;98603.94;5090874;28;20385;-70
2022/04/26 12:08:23;;;;;;;3.28;1.73;;;;;;;15.34;55.84;98607.00;5093983;28;20032;-70
2022/04/26 12:10:48;;;;;;;2.47;1.83;;;;;;;17.85;52.71;98595.75;5093974;28;20103;-71
2022/04/26 12:13:14;;;;;;;2.40;1.40;;;;;;;19.60;47.42;98606.28;5092464;28;20102;-70
2022/04/26 12:15:40;;;;;;;2.50;1.50;;;;;;;20.33;43.89;98593.38;5093342;28;20032;-71
2022/04/26 12:18:10;;;;;;;1.77;1.23;;;;;;;21.48;42.23;98607.66;5084718;28;20031;-73
2022/04/26 12:21:00;;;;;;;2.15;0.93;;;;;;;22.03;38.77;98607.72;5089595;28;20025;-70
2022/04/26 12:23:27;;;;;;;2.08;0.70;;;;;;;22.98;35.78;98603.84;5089746;28;20021;-73
2022/04/26 12:25:54;;;;;;;2.05;0.77;;;;;;;23.48;35.12;98607.19;5073148;28;20080;-73
2022/04/26 12:28:19;;;;;;;1.83;1.00;;;;;;;22.45;36.22;98611.91;5075559;28;20046;-75
2022/04/26 12:30:44;;;;;;;1.00;0.90;;;;;;;22.39;36.22;98608.38;5083205;28;20053;-71
2022/04/26 12:33:10;;;;;;;1.95;0.90;;;;;;;22.56;34.60;98607.16;5090696;28;20032;-72
2022/04/26 12:35:35;;;;;;;3.33;1.00;;;;;;;22.19;35.76;98603.81;5090898;28;20031;-72
2022/04/26 12:38:06;;;;;;;1.88;0.95;;;;;;;22.54;35.38;98619.31;5091782;28;20100;-72
2022/04/26 12:40:31;;;;;;;2.72;1.30;;;;;;;21.36;34.79;98618.13;5076657;28;20031;-70
2022/04/26 12:42:57;;;;;;;3.03;1.60;;;;;;;20.54;36.96;98597.00;5087026;28;20032;-72
2022/04/26 12:45:23;;;;;;;4.70;1.77;;;;;;;19.97;38.97;98614.44;5091720;28;20031;-73
2022/04/26 12:50:53;;;;;;;4.53;2.15;;;;;;;17.02;47.45;98617.56;5092867;28;20165;-71
2022/04/26 12:53:28;;;;;;;5.07;2.17;;;;;;;15.93;49.83;98626.00;5088035;28;20028;-67
2022/04/26 12:55:54;;;;;;;4.40;2.67;;;;;;;15.54;51.99;98621.09;5092414;28;20028;-65
2022/04/26 12:58:35;;;;;;;4.13;2.92;;;;;;;15.45;53.02;98625.25;5085489;28;20028;-65
2022/04/26 13:01:01;;;;;;;5.22;3.22;;;;;;;15.40;54.52;98625.13;5072507;28;20033;-66
2022/04/26 13:03:26;;;;;;;5.78;3.15;;;;;;;15.60;53.99;98637.56;5078357;28;20315;-65
2022/04/26 13:06:03;;;;;;;4.70;2.80;;;;;;;15.96;54.44;98640.00;5084642;28;20489;-65
2022/04/26 13:08:28;;;;;;;3.15;2.13;;;;;;;15.96;52.33;98642.72;5077533;28;20029;-65
2022/04/26 13:10:55;;;;;;;3.95;2.50;;;;;;;16.83;50.92;98638.03;5085417;28;20131;-65
2022/04/26 13:13:20;;;;;;;3.53;1.98;;;;;;;18.39;49.22;98641.50;5089292;28;20031;-65
2022/04/26 13:15:46;;;;;;;2.47;1.67;;;;;;;19.78;45.54;98633.31;5084546;28;20028;-65
2022/04/26 13:18:15;;;;;;;1.80;1.65;;;;;;;19.66;44.87;98622.53;5086551;28;20024;-65
2022/04/26 13:20:41;;;;;;;;;;;;;;;19.56;43.03;98636.16;5088692;28;20024;-65
2022/04/26 13:23:06;;;;;;;1.25;0.88;;;;;;;19.25;42.93;98635.97;5082077;28;19915;-65
2022/04/26 13:25:31;;;;;;;0.80;0.52;;;;;;;19.20;42.71;98625.00;5078404;28;20666;-66
2022/04/26 13:27:56;;;;;;;0.63;0.60;;;;;;;19.00;41.50;98642.13;5080422;28;20100;-65
2022/04/26 13:30:23;;;;;;;0.90;0.60;;;;;;;17.86;43.98;98654.06;5086251;28;20035;-66
2022/04/26 13:32:49;;;;;;;0.68;0.45;;;;;;;16.71;46.05;98649.00;5070130;28;20023;-65
2022/04/26 13:35:15;;;;;;;0.95;0.50;;;;;;;16.64;46.58;98653.81;5080452;28;20103;-64
2022/04/26 13:37:41;;;;;;;1.65;0.50;;;;;;;17.83;44.92;98629.94;5085051;28;20063;-64
2022/04/26 13:40:07;;;;;;;2.50;0.77;;;;;;;19.00;43.01;98644.03;5081034;28;20031;-65
2022/04/26 13:42:32;;;;;;;1.55;0.80;;;;;;;19.09;40.59;98649.84;5084942;28;20395;-64
2022/04/26 13:44:58;;;;;;;1.35;0.60;;;;;;;19.48;39.80;98642.97;5086771;28;20058;-65
2022/04/26 13:47:25;;;;;;;1.30;0.77;;;;;;;20.26;40.60;98631.25;5085234;28;20036;-64
2022/04/26 13:49:52;;;;;;;1.25;0.80;;;;;;;20.92;39.25;98640.72;5081749;28;20024;-71
2022/04/26 13:52:20;;;;;;;1.77;0.80;;;;;;;21.33;38.68;98635.19;5084151;28;20028;-67
2022/04/26 13:54:45;;;;;;;1.45;0.82;;;;;;;21.34;37.90;98645.09;5085125;28;20071;-66
2022/04/26 13:57:10;;;;;;;0.85;0.60;;;;;;;22.13;35.86;98648.19;5080338;28;20497;-67
2022/04/26 13:59:36;;;;;;;0.85;0.50;;;;;;;22.16;36.72;98633.84;5082927;28;20028;-66
2022/04/26 14:02:03;;;;;;;1.13;0.60;;;;;;;22.31;36.09;98648.38;5078587;28;20020;-66
2022/04/26 14:04:29;;;;;;;2.80;0.65;;;;;;;23.03;34.98;98652.59;5084240;28;20032;-67
2022/04/26 14:06:54;;;;;;;0.80;0.60;;;;;;;23.08;35.52;98638.78;5073276;28;20036;-67
2022/04/26 14:09:21;;;;;;;0.98;0.50;;;;;;;23.41;35.35;98640.66;5084178;28;20127;-67
2022/04/26 14:11:47;;;;;;;0.68;0.68;;;;;;;19.48;37.37;98662.19;5082152;28;20064;-67
2022/04/26 14:22:30;;;;;;;0.68;0.55;;;;;;;22.67;34.46;98644.59;5094371;28;20066;-75
2022/04/26 14:24:59;;;;;;;1.00;0.70;;;;;;;22.34;34.94;98643.41;5091545;28;20482;-72
2022/04/26 14:27:27;;;;;;;1.25;0.47;;;;;;;20.78;37.29;98646.78;5090332;28;20066;-74
2022/04/26 14:29:52;;;;;;;3.67;0.60;;;;;;;20.26;37.79;98638.69;5091491;28;20472;-72
2022/04/26 14:32:18;;;;;;;1.38;0.60;;;;;;;20.44;37.40;98649.16;5091893;28;20028;-72
2022/04/26 14:34:43;;;;;;;0.90;0.70;;;;;;;21.41;36.18;98642.91;5094362;28;20085;-70
2022/04/26 14:37:10;;;;;;;0.75;0.50;;;;;;;20.07;37.37;98639.19;5091447;28;20085;-71
2022/04/26 14:39:38;;;;;;;2.38;0.60;;;;;;;18.67;39.79;98648.63;5090642;28;20055;-69
2022/04/26 14:42:05;;;;;;;0.75;0.50;;;;;;;17.00;40.79;98657.16;5085944;28;20028;-70
2022/04/26 14:44:30;;;;;;;0.30;0.30;;;;;;;16.86;41.65;98643.81;5089045;28;20059;-69
2022/04/26 14:46:55;;;;;;;1.02;0.40;;;;;;;16.59;41.99;98653.72;5095789;28;20523;-68
2022/04/26 14:49:20;;;;;;;0.60;0.60;;;;;;;17.36;41.40;98660.44;5090123;28;20562;-69
2022/04/26 14:51:46;;;;;;;1.60;0.60;;;;;;;18.92;37.78;98648.09;5086886;28;20040;-69
2022/04/26 14:54:12;;;;;;;0.60;0.50;;;;;;;19.51;37.05;98644.38;5088789;28;20035;-70
2022/04/26 14:56:37;;;;;;;4.18;0.52;;;;;;;19.61;38.31;98647.16;5088907;28;20027;-71
2022/04/26 14:59:03;;;;;;;0.82;0.57;;;;;;;19.06;38.84;98645.72;5087053;28;20024;-69
2022/04/26 15:01:30;;;;;;;1.40;0.52;;;;;;;18.21;40.31;98653.66;5083290;28;20027;-70
2022/04/26 15:03:56;;;;;;;3.63;0.70;;;;;;;17.75;41.88;98653.06;5089009;28;20058;-69
2022/04/26 15:06:21;;;;;;;1.08;0.60;;;;;;;17.49;42.52;98658.19;5083849;28;20036;-69
2022/04/26 15:11:30;;;;;;;2.00;1.15;;;;;;;14.94;49.85;98653.22;5084635;28;20637;-68
2022/04/26 15:16:42;;;;;;;2.80;1.98;;;;;;;14.38;54.42;98672.50;5090865;28;20172;-68
2022/04/26 15:19:11;;;;;;;2.58;1.75;;;;;;;13.95;58.07;98688.97;5108515;28;20039;-72
2022/04/26 15:21:38;;;;;;;3.90;1.70;;;;;;;13.54;60.54;98698.63;5081696;28;20032;-71
2022/04/26 15:24:04;;;;;;;2.55;1.40;;;;;;;13.02;61.53;98692.59;5085181;28;20028;-71
2022/04/26 15:26:30;;;;;;;2.28;1.52;;;;;;;12.36;63.73;98680.34;5087819;28;20093;-68
2022/04/26 15:28:56;;;;;;;2.00;1.35;;;;;;;12.14;69.86;98706.97;5082789;28;20097;-71
2022/04/26 15:31:22;;;;;;;4.63;1.40;;;;;;;12.05;72.10;98704.50;5089184;28;20035;-71
2022/04/26 15:33:49;;;;;;;5.13;1.80;;;;;;;12.10;71.39;98708.44;5095747;28;20028;-77
2022/04/26 15:36:16;;;;;;;3.80;2.63;;;;;;;12.05;73.72;98701.78;5098642;28;20019;-69
2022/04/26 15:38:42;;;;;;;3.25;2.22;;;;;;;12.09;72.79;98695.94;5084797;28;20096;-70
2022/04/26 15:41:07;;;;;;;2.85;2.00;;;;;;;12.06;75.55;98686.34;5089747;28;20031;-71